createdAt,value
2019-05-29T00:02:05.965Z,2.58
2019-05-29T00:04:34.645Z,2.72
2019-05-29T00:07:03.259Z,3.05
2019-05-29T00:09:31.652Z,2.92
2019-05-29T00:12:00.033Z,3.33
2019-05-29T00:14:28.433Z,2.85
2019-05-29T00:16:56.797Z,3.22
2019-05-29T00:19:25.461Z,3.27
2019-05-29T00:21:54.056Z,3.67
2019-05-29T00:24:23.254Z,3.25
2019-05-29T00:26:51.655Z,3.20
2019-05-29T00:29:22.717Z,3.25
2019-05-29T00:31:51.178Z,3.70
2019-05-29T00:34:19.576Z,3.62
2019-05-29T00:36:47.952Z,3.77
2019-05-29T00:39:16.872Z,3.52
2019-05-29T00:41:45.638Z,4.20
2019-05-29T00:44:15.305Z,3.72
2019-05-29T00:46:43.781Z,4.62
2019-05-29T00:49:12.178Z,3.98
2019-05-29T00:51:40.569Z,4.00
2019-05-29T00:54:10.235Z,3.65
2019-05-29T00:56:38.879Z,3.80
2019-05-29T00:59:07.548Z,3.55
2019-05-29T01:01:35.926Z,3.95
2019-05-29T01:04:04.396Z,4.00
2019-05-29T01:06:32.784Z,4.08
2019-05-29T01:09:01.169Z,2.60
2019-05-29T01:11:29.791Z,2.90
2019-05-29T01:13:58.439Z,2.95
2019-05-29T01:16:26.816Z,2.80
2019-05-29T01:18:57.104Z,2.90
2019-05-29T01:21:25.862Z,2.62
2019-05-29T01:23:54.240Z,2.60
2019-05-29T01:26:22.903Z,2.65
2019-05-29T01:28:51.299Z,2.40
2019-05-29T01:31:19.920Z,2.42
2019-05-29T01:33:48.299Z,2.40
2019-05-29T01:36:17.940Z,2.52
2019-05-29T01:38:46.353Z,2.80
2019-05-29T01:41:15.102Z,3.05
2019-05-29T01:43:43.521Z,2.70
2019-05-29T01:46:11.907Z,3.10
2019-05-29T01:48:40.290Z,2.70
2019-05-29T01:51:08.680Z,3.10
2019-05-29T01:53:37.307Z,4.00
2019-05-29T01:56:05.955Z,3.92
2019-05-29T01:58:34.599Z,4.10
2019-05-29T02:01:02.995Z,3.75
2019-05-29T02:03:31.620Z,3.77
2019-05-29T02:06:00.008Z,4.60
2019-05-29T02:08:28.399Z,4.78
2019-05-29T02:10:56.779Z,4.62
2019-05-29T02:13:25.162Z,4.28
2019-05-29T02:15:53.563Z,4.50
2019-05-29T02:18:22.963Z,5.10
2019-05-29T02:20:51.651Z,4.90
2019-05-29T02:23:20.048Z,4.90
2019-05-29T02:25:48.424Z,5.10
2019-05-29T02:28:16.802Z,5.42
2019-05-29T02:30:45.195Z,5.53
2019-05-29T02:33:13.650Z,5.17
2019-05-29T02:35:42.323Z,5.58
2019-05-29T02:38:10.704Z,5.35
2019-05-29T02:40:39.102Z,5.33
2019-05-29T02:43:07.481Z,5.22
2019-05-29T02:45:53.182Z,5.15
2019-05-29T02:48:06.310Z,6.00
2019-05-29T02:50:34.713Z,5.28
2019-05-29T02:53:03.097Z,5.92
2019-05-29T02:55:31.498Z,5.72
2019-05-29T02:58:00.117Z,5.58
2019-05-29T03:00:43.757Z,6.00
2019-05-29T03:03:12.146Z,5.85
2019-05-29T03:05:40.537Z,5.53
2019-05-29T03:08:09.176Z,6.00
2019-05-29T03:10:37.569Z,6.62
2019-05-29T03:13:06.034Z,6.10
2019-05-29T03:15:34.661Z,6.37
2019-05-29T03:18:03.062Z,6.83
2019-05-29T03:20:32.394Z,5.97
2019-05-29T03:23:00.822Z,6.15
2019-05-29T03:25:30.603Z,6.35
2019-05-29T03:27:59.031Z,6.37
2019-05-29T03:30:30.676Z,7.05
2019-05-29T03:32:57.789Z,6.85
2019-05-29T03:35:28.198Z,7.42
2019-05-29T03:37:58.745Z,7.08
2019-05-29T03:40:26.708Z,7.35
2019-05-29T03:42:56.739Z,7.53
2019-05-29T03:45:26.697Z,7.83
2019-05-29T03:47:55.236Z,8.10
2019-05-29T03:50:23.872Z,8.33
2019-05-29T03:52:52.300Z,8.58
2019-05-29T03:55:20.669Z,7.90
2019-05-29T03:57:49.067Z,8.90
2019-05-29T04:00:17.937Z,7.70
2019-05-29T04:02:46.332Z,8.33
2019-05-29T04:05:16.053Z,8.05
2019-05-29T04:07:44.457Z,7.42
2019-05-29T04:10:13.066Z,7.97
2019-05-29T04:12:41.466Z,7.30
2019-05-29T04:15:10.170Z,8.50
2019-05-29T04:17:39.823Z,9.35
2019-05-29T04:20:09.291Z,7.85
2019-05-29T04:22:45.138Z,8.45
2019-05-29T04:25:14.359Z,7.90
2019-05-29T04:27:43.500Z,8.83
2019-05-29T04:30:13.695Z,8.70
2019-05-29T04:32:42.093Z,8.30
2019-05-29T04:35:10.887Z,8.20
2019-05-29T04:37:40.070Z,9.03
2019-05-29T04:40:09.660Z,8.15
2019-05-29T04:42:39.928Z,8.18
2019-05-29T04:45:08.604Z,7.60
2019-05-29T04:47:37.495Z,7.92
2019-05-29T04:50:07.265Z,7.53
2019-05-29T04:52:37.655Z,7.90
2019-05-29T04:55:06.144Z,7.45
2019-05-29T04:57:35.015Z,7.40
2019-05-29T05:00:04.182Z,6.95
2019-05-29T05:02:33.051Z,7.17
2019-05-29T05:05:01.448Z,7.60
2019-05-29T05:07:31.091Z,7.28
2019-05-29T05:09:59.469Z,7.35
2019-05-29T05:12:29.490Z,7.20
2019-05-29T05:14:58.382Z,8.08
2019-05-29T05:17:27.122Z,7.30
2019-05-29T05:19:55.517Z,8.58
2019-05-29T05:22:23.899Z,8.18
2019-05-29T05:24:52.302Z,8.53
2019-05-29T05:27:20.683Z,9.03
2019-05-29T05:29:49.335Z,9.53
2019-05-29T05:32:17.969Z,10.18
2019-05-29T05:34:46.644Z,10.18
2019-05-29T05:37:15.284Z,10.05
2019-05-29T05:39:43.688Z,10.93
2019-05-29T05:42:12.081Z,11.83
2019-05-29T05:44:41.156Z,10.95
2019-05-29T05:47:09.541Z,12.13
2019-05-29T05:49:39.419Z,12.15
2019-05-29T05:52:08.111Z,12.18
2019-05-29T05:54:37.526Z,11.60
2019-05-29T05:57:06.232Z,12.10
2019-05-29T05:59:35.743Z,12.37
2019-05-29T06:02:04.215Z,11.28
2019-05-29T06:04:33.803Z,12.25
2019-05-29T06:07:02.464Z,12.70
2019-05-29T06:09:32.679Z,12.23
2019-05-29T06:12:01.335Z,11.20
2019-05-29T06:14:29.745Z,12.03
2019-05-29T06:16:58.142Z,12.18
2019-05-29T06:19:26.566Z,12.30
2019-05-29T06:21:54.956Z,11.80
2019-05-29T06:24:23.363Z,12.58
2019-05-29T06:26:51.998Z,12.25
2019-05-29T06:29:20.650Z,12.20
2019-05-29T06:31:49.043Z,12.60
2019-05-29T06:34:17.458Z,12.78
2019-05-29T06:36:48.107Z,12.78
2019-05-29T06:39:16.239Z,13.03
2019-05-29T06:41:44.733Z,12.58
2019-05-29T06:44:13.368Z,13.25
2019-05-29T06:46:42.576Z,12.70
2019-05-29T06:49:11.286Z,12.10
2019-05-29T06:51:39.681Z,14.13
2019-05-29T06:54:08.136Z,13.45
2019-05-29T06:56:37.621Z,13.18
2019-05-29T06:59:06.092Z,13.55
2019-05-29T07:01:35.234Z,12.88
2019-05-29T07:04:11.862Z,12.85
2019-05-29T07:06:34.295Z,13.20
2019-05-29T07:09:02.763Z,13.50
2019-05-29T07:11:31.168Z,13.03
2019-05-29T07:13:59.556Z,13.20
2019-05-29T07:16:43.258Z,12.18
2019-05-29T07:21:28.472Z,11.97
2019-05-29T07:23:56.860Z,11.90
2019-05-29T07:26:25.510Z,12.35
2019-05-29T07:29:06.516Z,12.73
2019-05-29T07:31:24.037Z,12.28
2019-05-29T07:33:52.682Z,12.05
2019-05-29T07:36:21.089Z,11.25
2019-05-29T07:38:57.774Z,11.40
2019-05-29T07:41:19.612Z,11.30
2019-05-29T07:43:48.170Z,10.30
2019-05-29T07:46:16.587Z,10.03
2019-05-29T07:48:46.388Z,8.43
2019-05-29T07:51:15.817Z,7.47
2019-05-29T07:53:44.495Z,8.63
2019-05-29T07:56:22.026Z,8.03
2019-05-29T07:58:49.131Z,7.45
2019-05-29T08:01:14.054Z,6.95
2019-05-29T08:03:43.491Z,7.55
2019-05-29T08:06:12.012Z,7.70
2019-05-29T08:08:41.205Z,8.85
2019-05-29T08:11:09.825Z,9.40
2019-05-29T08:13:39.476Z,8.68
2019-05-29T08:16:08.116Z,8.60
2019-05-29T08:18:36.549Z,9.20
2019-05-29T08:21:05.150Z,8.20
2019-05-29T08:23:33.540Z,8.40
2019-05-29T08:26:01.946Z,7.47
2019-05-29T08:28:30.346Z,6.97
2019-05-29T08:30:58.756Z,7.47
2019-05-29T08:33:27.138Z,7.72
2019-05-29T08:36:00.102Z,8.53
2019-05-29T08:38:26.140Z,8.18
2019-05-29T08:40:54.538Z,8.43
2019-05-29T08:43:22.942Z,9.50
2019-05-29T08:45:52.633Z,8.28
2019-05-29T08:48:21.158Z,8.75
2019-05-29T08:50:49.985Z,8.68
2019-05-29T08:53:18.630Z,8.90
2019-05-29T08:55:48.402Z,7.65
2019-05-29T08:58:17.425Z,7.87
2019-05-29T09:00:49.893Z,6.20
2019-05-29T09:03:15.952Z,7.60
2019-05-29T09:05:44.584Z,6.85
2019-05-29T09:08:13.018Z,6.35
2019-05-29T09:10:41.397Z,6.92
2019-05-29T09:13:09.801Z,6.10
2019-05-29T09:15:38.429Z,6.87
2019-05-29T09:18:06.825Z,7.03
2019-05-29T09:21:00.082Z,6.70
2019-05-29T09:23:05.336Z,6.45
2019-05-29T09:25:33.969Z,6.87
2019-05-29T09:28:04.121Z,6.72
2019-05-29T09:30:32.744Z,5.60
2019-05-29T09:33:01.146Z,5.53
2019-05-29T09:35:29.788Z,5.53
2019-05-29T09:37:58.433Z,5.15
2019-05-29T09:40:26.817Z,5.33
2019-05-29T09:42:55.215Z,6.22
2019-05-29T09:45:23.853Z,4.58
2019-05-29T09:47:52.248Z,4.20
2019-05-29T09:50:23.229Z,5.17
2019-05-29T09:52:51.241Z,5.10
2019-05-29T09:55:19.688Z,4.60
2019-05-29T09:57:48.096Z,5.00
2019-05-29T10:00:17.212Z,5.20
2019-05-29T10:02:45.897Z,5.33
2019-05-29T10:05:14.423Z,5.87
2019-05-29T10:07:42.818Z,5.25
2019-05-29T10:10:13.148Z,5.28
2019-05-29T10:12:41.620Z,5.50
2019-05-29T10:15:12.190Z,5.90
2019-05-29T10:17:40.594Z,5.78
2019-05-29T10:20:10.707Z,5.58
2019-05-29T10:22:39.342Z,6.00
2019-05-29T10:25:08.475Z,7.20
2019-05-29T10:27:36.884Z,6.70
2019-05-29T10:30:06.603Z,5.80
2019-05-29T10:32:35.070Z,5.30
2019-05-29T10:35:03.925Z,4.70
2019-05-29T10:37:32.327Z,5.00
2019-05-29T10:40:00.974Z,5.92
2019-05-29T10:42:29.632Z,4.83
2019-05-29T10:44:58.086Z,4.60
2019-05-29T10:47:26.466Z,5.25
2019-05-29T10:49:54.858Z,5.00
2019-05-29T10:52:23.242Z,5.00
2019-05-29T10:54:52.433Z,4.33
2019-05-29T10:57:20.901Z,3.90
2019-05-29T10:59:49.286Z,4.08
2019-05-29T11:02:17.929Z,4.87
2019-05-29T11:04:50.394Z,5.47
2019-05-29T11:07:16.518Z,6.10
2019-05-29T11:09:46.680Z,5.30
2019-05-29T11:12:15.434Z,5.03
2019-05-29T11:14:43.851Z,4.55
2019-05-29T11:17:12.221Z,3.80
2019-05-29T11:19:40.673Z,4.90
2019-05-29T11:22:25.108Z,5.03
2019-05-29T11:24:39.263Z,5.12
2019-05-29T11:27:07.656Z,5.17
2019-05-29T11:29:36.066Z,5.83
2019-05-29T11:32:04.524Z,5.00
2019-05-29T11:34:32.918Z,4.72
2019-05-29T11:37:02.421Z,4.55
2019-05-29T11:39:31.135Z,5.15
2019-05-29T11:41:59.527Z,5.03
2019-05-29T11:44:27.923Z,5.28
2019-05-29T11:46:56.566Z,5.10
2019-05-29T11:49:25.209Z,5.00
2019-05-29T11:51:55.337Z,5.12
2019-05-29T11:54:23.715Z,4.92
2019-05-29T11:56:53.712Z,4.42
2019-05-29T11:59:22.326Z,4.58
2019-05-29T12:01:52.506Z,4.47
2019-05-29T12:04:26.338Z,4.90
2019-05-29T12:06:51.275Z,5.00
2019-05-29T12:09:32.253Z,4.95
2019-05-29T12:11:49.828Z,4.50
2019-05-29T12:14:18.652Z,4.53
2019-05-29T12:16:47.040Z,6.25
2019-05-29T12:19:15.674Z,6.70
2019-05-29T12:21:44.355Z,7.17
2019-05-29T12:24:13.000Z,7.17
2019-05-29T12:26:41.709Z,6.90
2019-05-29T12:29:11.831Z,6.70
2019-05-29T12:31:40.754Z,6.37
2019-05-29T12:34:18.742Z,6.25
2019-05-29T12:36:39.504Z,6.10
2019-05-29T12:39:08.786Z,5.75
2019-05-29T12:41:37.208Z,5.47
2019-05-29T12:44:05.913Z,4.60
2019-05-29T12:46:34.297Z,4.92
2019-05-29T12:49:03.767Z,3.55
2019-05-29T12:51:32.184Z,3.67
2019-05-29T12:54:02.163Z,3.87
2019-05-29T12:56:30.699Z,3.98
2019-05-29T12:59:00.415Z,5.00
2019-05-29T13:01:29.213Z,3.60
2019-05-29T13:04:00.457Z,2.55
2019-05-29T13:06:28.104Z,4.83
2019-05-29T13:08:56.736Z,5.97
2019-05-29T13:11:25.123Z,5.62
2019-05-29T13:13:54.330Z,5.53
2019-05-29T13:16:22.809Z,5.35
2019-05-29T13:18:51.436Z,5.33
2019-05-29T13:21:20.078Z,6.00
2019-05-29T13:23:48.738Z,6.53
2019-05-29T13:26:17.122Z,7.30
2019-05-29T13:28:45.523Z,8.05
2019-05-29T13:31:14.157Z,7.87
2019-05-29T13:33:42.560Z,8.10
2019-05-29T13:36:10.949Z,7.05
2019-05-29T13:38:39.886Z,9.78
2019-05-29T13:41:08.315Z,8.08
2019-05-29T13:43:36.962Z,7.90
2019-05-29T13:46:05.432Z,6.70
2019-05-29T13:48:33.824Z,6.92
2019-05-29T13:51:03.668Z,7.67
2019-05-29T13:53:32.095Z,9.78
2019-05-29T13:56:01.773Z,9.18
2019-05-29T13:58:30.513Z,8.25
2019-05-29T14:01:00.790Z,9.23
2019-05-29T14:03:29.280Z,8.53
2019-05-29T14:05:58.680Z,8.65
2019-05-29T14:08:27.076Z,8.13
2019-05-29T14:10:55.712Z,10.40
2019-05-29T14:13:24.543Z,7.95
2019-05-29T14:15:53.203Z,8.03
2019-05-29T14:18:21.604Z,10.80
2019-05-29T14:20:50.021Z,10.18
2019-05-29T14:23:18.412Z,10.00
2019-05-29T14:25:46.825Z,10.63
2019-05-29T14:28:15.542Z,8.68
2019-05-29T14:30:44.179Z,8.63
2019-05-29T14:33:15.126Z,9.23
2019-05-29T14:35:43.235Z,8.65
2019-05-29T14:38:14.946Z,8.48
2019-05-29T14:40:42.016Z,7.83
2019-05-29T14:43:13.673Z,7.67
2019-05-29T14:45:40.562Z,7.70
2019-05-29T14:48:10.182Z,6.58
2019-05-29T14:50:38.578Z,7.10
2019-05-29T14:53:07.407Z,7.58
2019-05-29T14:55:36.371Z,7.35
2019-05-29T14:58:05.729Z,8.68
2019-05-29T15:00:34.174Z,8.60
2019-05-29T15:03:03.323Z,8.85
2019-05-29T15:05:31.798Z,9.35
2019-05-29T15:08:00.201Z,11.30
2019-05-29T15:10:28.842Z,11.50
2019-05-29T15:12:58.318Z,11.43
2019-05-29T15:15:26.977Z,10.72
2019-05-29T15:17:55.628Z,10.18
2019-05-29T15:20:24.028Z,9.93
2019-05-29T15:22:52.683Z,9.48
2019-05-29T15:25:24.386Z,9.33
2019-05-29T15:27:52.205Z,9.65
2019-05-29T15:30:23.319Z,9.90
2019-05-29T15:32:50.822Z,10.28
2019-05-29T15:35:20.233Z,10.00
2019-05-29T15:37:48.682Z,10.03
2019-05-29T15:40:17.327Z,9.33
2019-05-29T15:42:45.768Z,10.72
2019-05-29T15:45:15.955Z,9.73
2019-05-29T15:47:44.396Z,10.35
2019-05-29T15:50:14.720Z,9.60
2019-05-29T15:52:43.731Z,8.68
2019-05-29T15:55:27.428Z,7.80
2019-05-29T15:57:42.678Z,6.60
2019-05-29T16:00:13.576Z,6.15
2019-05-29T16:02:42.194Z,6.70
2019-05-29T16:05:13.210Z,6.40
2019-05-29T16:07:41.980Z,7.10
2019-05-29T16:10:14.817Z,6.65
2019-05-29T16:12:42.794Z,5.75
2019-05-29T16:15:13.106Z,4.67
2019-05-29T16:17:41.599Z,6.03
2019-05-29T16:20:12.160Z,5.40
2019-05-29T16:22:40.722Z,5.97
2019-05-29T16:25:10.833Z,6.37
2019-05-29T16:27:39.323Z,7.35
2019-05-29T16:30:13.630Z,7.50
2019-05-29T16:32:42.427Z,7.22
2019-05-29T16:35:13.190Z,7.45
2019-05-29T16:37:41.754Z,8.23
2019-05-29T16:40:18.155Z,7.45
2019-05-29T16:42:46.690Z,7.58
2019-05-29T16:45:16.331Z,7.92
2019-05-29T16:47:44.863Z,7.20
2019-05-29T16:50:15.020Z,7.20
2019-05-29T16:52:43.505Z,8.50
2019-05-29T16:55:12.996Z,7.15
2019-05-29T16:57:41.945Z,7.90
2019-05-29T17:00:13.547Z,7.70
2019-05-29T17:02:42.195Z,7.55
2019-05-29T17:05:11.002Z,10.10
2019-05-29T17:07:39.370Z,9.98
2019-05-29T17:10:08.617Z,7.75
2019-05-29T17:12:36.981Z,8.73
2019-05-29T17:15:10.605Z,7.75
2019-05-29T17:17:39.316Z,7.25
2019-05-29T17:20:08.850Z,8.18
2019-05-29T17:22:37.500Z,7.45
2019-05-29T17:25:06.900Z,7.30
2019-05-29T17:27:35.362Z,7.42
2019-05-29T17:30:05.290Z,7.15
2019-05-29T17:32:33.918Z,7.20
2019-05-29T17:35:02.486Z,6.67
2019-05-29T17:37:31.035Z,6.80
2019-05-29T17:39:59.748Z,8.40
2019-05-29T17:42:28.131Z,7.58
2019-05-29T17:44:56.525Z,5.85
2019-05-29T17:47:25.767Z,5.78
2019-05-29T17:49:54.171Z,4.80
2019-05-29T17:52:23.836Z,5.35
2019-05-29T17:54:52.571Z,5.22
2019-05-29T17:57:21.954Z,5.00
2019-05-29T17:59:50.670Z,5.25
2019-05-29T18:02:20.255Z,5.87
2019-05-29T18:04:48.681Z,6.50
2019-05-29T18:07:18.290Z,5.70
2019-05-29T18:09:46.972Z,5.30
2019-05-29T18:12:15.399Z,5.62
2019-05-29T18:14:43.771Z,6.20
2019-05-29T18:17:12.426Z,5.90
2019-05-29T18:19:40.792Z,5.50
2019-05-29T18:22:09.201Z,5.40
2019-05-29T18:24:37.836Z,5.97
2019-05-29T18:27:06.305Z,6.03
2019-05-29T18:29:34.686Z,5.70
2019-05-29T18:32:03.346Z,5.92
2019-05-29T18:34:31.954Z,5.90
2019-05-29T18:37:00.672Z,6.03
2019-05-29T18:39:29.314Z,6.40
2019-05-29T18:41:57.952Z,5.60
2019-05-29T18:44:26.963Z,5.53
2019-05-29T18:46:55.578Z,6.10
2019-05-29T18:49:24.371Z,5.90
2019-05-29T18:51:52.919Z,6.10
2019-05-29T18:54:21.663Z,6.20
2019-05-29T18:57:13.748Z,7.28
2019-05-29T18:59:21.483Z,6.67
2019-05-29T19:01:50.123Z,7.12
2019-05-29T19:04:18.506Z,7.10
2019-05-29T19:06:46.897Z,6.90
2019-05-29T19:09:15.524Z,7.37
2019-05-29T19:11:43.918Z,7.45
2019-05-29T19:14:12.296Z,6.60
2019-05-29T19:16:40.685Z,8.03
2019-05-29T19:19:09.070Z,7.50
2019-05-29T19:21:37.465Z,7.67
2019-05-29T19:24:05.999Z,9.85
2019-05-29T19:26:36.731Z,8.18
2019-05-29T19:29:04.871Z,9.38
2019-05-29T19:31:33.435Z,9.25
2019-05-29T19:34:02.045Z,9.40
2019-05-29T19:36:31.764Z,9.78
2019-05-29T19:39:00.203Z,8.80
2019-05-29T19:41:28.604Z,9.50
2019-05-29T19:43:56.991Z,9.03
2019-05-29T19:46:26.368Z,10.15
2019-05-29T19:48:54.758Z,10.00
2019-05-29T19:51:23.153Z,9.08
2019-05-29T19:53:51.801Z,9.43
2019-05-29T19:56:20.201Z,9.58
2019-05-29T19:58:48.582Z,10.78
2019-05-29T20:01:30.105Z,10.28
2019-05-29T20:03:47.082Z,9.93
2019-05-29T20:06:15.737Z,12.30
2019-05-29T20:08:44.400Z,13.18
2019-05-29T20:11:12.766Z,13.40
2019-05-29T20:13:41.417Z,14.45
2019-05-29T20:16:10.094Z,14.15
2019-05-29T20:18:38.604Z,15.28
2019-05-29T20:21:07.212Z,15.40
2019-05-29T20:23:36.735Z,13.98
2019-05-29T20:26:05.447Z,14.40
2019-05-29T20:28:34.286Z,14.78
2019-05-29T20:31:02.667Z,15.30
2019-05-29T20:33:32.393Z,14.13
2019-05-29T20:36:01.126Z,15.50
2019-05-29T20:38:29.534Z,15.83
2019-05-29T20:40:58.177Z,16.17
2019-05-29T20:43:26.592Z,18.15
2019-05-29T20:45:55.227Z,18.10
2019-05-29T20:48:23.627Z,16.75
2019-05-29T20:50:52.015Z,15.45
2019-05-29T20:53:20.677Z,16.12
2019-05-29T20:55:49.067Z,14.95
2019-05-29T20:58:24.633Z,13.20
2019-05-29T21:00:47.835Z,12.43
2019-05-29T21:03:16.233Z,12.40
2019-05-29T21:05:44.626Z,11.75
2019-05-29T21:08:14.205Z,12.82
2019-05-29T21:10:43.631Z,12.10
2019-05-29T21:13:12.015Z,11.65
2019-05-29T21:15:41.478Z,33.80
2019-05-29T21:18:10.447Z,28.07
2019-05-29T21:20:40.367Z,12.40
2019-05-29T21:23:09.109Z,11.83
2019-05-29T21:25:38.712Z,11.40
2019-05-29T21:28:07.400Z,11.40
2019-05-29T21:30:37.348Z,13.83
2019-05-29T21:33:06.056Z,17.80
2019-05-29T21:35:34.443Z,16.07
2019-05-29T21:38:03.098Z,17.40
2019-05-29T21:40:31.512Z,27.02
2019-05-29T21:42:59.895Z,21.12
2019-05-29T21:45:28.525Z,30.60
2019-05-29T21:47:56.935Z,20.80
2019-05-29T21:50:25.565Z,30.45
2019-05-29T21:52:54.043Z,17.87
2019-05-29T21:55:22.431Z,14.25
2019-05-29T21:57:50.832Z,13.30
2019-05-29T22:00:33.798Z,12.40
2019-05-29T22:03:02.537Z,16.62
2019-05-29T22:05:31.178Z,16.52
2019-05-29T22:07:59.996Z,14.83
2019-05-29T22:10:28.383Z,15.95
2019-05-29T22:12:56.940Z,12.30
2019-05-29T22:15:25.399Z,11.60
2019-05-29T22:17:54.942Z,11.28
2019-05-29T22:20:23.648Z,10.63
2019-05-29T22:22:53.070Z,9.85
2019-05-29T22:25:21.742Z,10.43
2019-05-29T22:27:51.211Z,10.43
2019-05-29T22:30:20.100Z,10.30
2019-05-29T22:32:48.741Z,9.23
2019-05-29T22:35:17.388Z,8.88
2019-05-29T22:37:45.771Z,9.88
2019-05-29T22:40:14.658Z,10.45
2019-05-29T22:42:43.051Z,10.20
2019-05-29T22:45:12.282Z,10.40
2019-05-29T22:47:40.913Z,11.33
2019-05-29T22:50:09.854Z,11.33
2019-05-29T22:52:38.254Z,11.97
2019-05-29T22:55:07.093Z,11.48
2019-05-29T22:57:35.734Z,10.55
2019-05-29T23:00:09.214Z,10.82
2019-05-29T23:02:37.599Z,10.38
2019-05-29T23:05:08.475Z,11.30
2019-05-29T23:07:36.926Z,10.30
2019-05-29T23:10:08.819Z,11.70
2019-05-29T23:12:37.459Z,11.12
2019-05-29T23:15:07.885Z,11.78
2019-05-29T23:17:36.521Z,12.40
2019-05-29T23:20:08.379Z,11.48
2019-05-29T23:22:36.780Z,12.30
2019-05-29T23:25:06.919Z,10.80
2019-05-29T23:27:35.973Z,11.08
2019-05-29T23:30:07.526Z,11.88
2019-05-29T23:32:35.911Z,11.93
2019-05-29T23:35:05.551Z,11.97
2019-05-29T23:37:34.182Z,12.33
2019-05-29T23:40:03.521Z,12.13
2019-05-29T23:42:31.924Z,11.97
2019-05-29T23:45:01.549Z,11.93
2019-05-29T23:47:30.242Z,12.13
2019-05-29T23:49:59.692Z,12.98
2019-05-29T23:52:28.365Z,11.97
2019-05-29T23:54:57.942Z,12.43
2019-05-29T23:57:26.584Z,11.45
